createdAt,value
2018-02-18T00:01:22.844Z,102072.00
2018-02-18T00:03:48.834Z,102078.52
2018-02-18T00:06:14.794Z,102069.63
2018-02-18T00:08:40.758Z,102072.22
2018-02-18T00:11:06.723Z,102070.53
2018-02-18T00:13:32.682Z,102071.17
2018-02-18T00:15:58.669Z,102077.86
2018-02-18T00:18:24.642Z,102083.48
2018-02-18T00:20:50.570Z,102082.02
2018-02-18T00:23:16.513Z,102079.11
2018-02-18T00:25:42.483Z,102079.02
2018-02-18T00:28:08.439Z,102079.53
2018-02-18T00:30:34.393Z,102087.65
2018-02-18T00:33:00.354Z,102091.09
2018-02-18T00:35:26.298Z,102085.55
2018-02-18T00:37:52.266Z,102093.30
2018-02-18T00:40:18.231Z,102096.48
2018-02-18T00:42:44.183Z,102092.19
2018-02-18T00:45:10.186Z,102094.76
2018-02-18T00:47:36.126Z,102094.11
2018-02-18T00:50:02.094Z,102098.17
2018-02-18T00:52:28.042Z,102100.23
2018-02-18T00:54:53.993Z,102101.28
2018-02-18T00:57:19.952Z,102110.44
2018-02-18T00:59:45.912Z,102100.15
2018-02-18T01:02:11.864Z,102103.95
2018-02-18T01:04:37.851Z,102108.92
2018-02-18T01:07:03.798Z,102102.27
2018-02-18T01:09:29.745Z,102100.39
2018-02-18T01:11:55.719Z,102104.40
2018-02-18T01:14:21.665Z,102109.24
2018-02-18T01:16:47.626Z,102103.34
2018-02-18T01:19:13.578Z,102105.50
2018-02-18T01:21:39.565Z,102118.77
2018-02-18T01:24:05.509Z,102112.98
2018-02-18T01:26:31.467Z,102128.77
2018-02-18T01:28:57.446Z,102119.75
2018-02-18T01:31:23.408Z,102123.98
2018-02-18T01:33:49.346Z,102118.08
2018-02-18T01:36:15.294Z,102121.97
2018-02-18T01:38:41.266Z,102115.90
2018-02-18T01:41:07.210Z,102118.02
2018-02-18T01:43:33.169Z,102113.89
2018-02-18T01:45:59.112Z,102122.00
2018-02-18T01:48:25.049Z,102123.02
2018-02-18T01:50:51.019Z,102120.81
2018-02-18T01:53:16.958Z,102124.03
2018-02-18T01:55:42.913Z,102119.94
2018-02-18T01:58:08.858Z,102120.84
2018-02-18T02:00:34.794Z,102119.79
2018-02-18T02:03:00.769Z,102123.80
2018-02-18T02:05:26.708Z,102118.53
2018-02-18T02:07:52.674Z,102123.80
2018-02-18T02:10:18.631Z,102122.91
2018-02-18T02:12:44.590Z,102127.36
2018-02-18T02:15:10.533Z,102119.16
2018-02-18T02:17:36.497Z,102114.91
2018-02-18T02:20:02.440Z,102114.94
2018-02-18T02:22:28.389Z,102116.86
2018-02-18T02:24:54.332Z,102117.70
2018-02-18T02:27:20.297Z,102122.03
2018-02-18T02:29:46.255Z,102122.54
2018-02-18T02:32:12.203Z,102123.86
2018-02-18T02:34:38.145Z,102119.25
2018-02-18T02:37:04.080Z,102120.78
2018-02-18T02:39:30.171Z,102115.06
2018-02-18T02:41:56.139Z,102120.12
2018-02-18T02:44:22.112Z,102112.09
2018-02-18T02:46:48.124Z,102122.88
2018-02-18T02:49:14.012Z,102120.03
2018-02-18T02:51:39.975Z,102131.13
2018-02-18T02:54:05.913Z,102128.02
2018-02-18T02:56:31.866Z,102128.02
2018-02-18T02:58:57.806Z,102127.12
2018-02-18T03:01:23.742Z,102123.44
2018-02-18T03:03:49.684Z,102116.64
2018-02-18T03:06:15.658Z,102118.73
2018-02-18T03:08:41.615Z,102115.78
2018-02-18T03:11:07.569Z,102109.62
2018-02-18T03:13:33.539Z,102111.92
2018-02-18T03:15:59.494Z,102115.55
2018-02-18T03:18:25.441Z,102109.73
2018-02-18T03:20:51.430Z,102100.41
2018-02-18T03:23:17.380Z,102100.47
2018-02-18T03:25:43.349Z,102095.77
2018-02-18T03:28:09.378Z,102090.50
2018-02-18T03:30:35.355Z,102094.18
2018-02-18T03:33:01.294Z,102097.14
2018-02-18T03:35:27.262Z,102097.77
2018-02-18T03:37:53.189Z,102093.14
2018-02-18T03:40:19.136Z,102095.27
2018-02-18T03:42:45.157Z,102100.67
2018-02-18T03:45:11.105Z,102097.89
2018-02-18T03:47:37.050Z,102096.63
2018-02-18T03:50:03.006Z,102100.83
2018-02-18T03:52:28.953Z,102101.87
2018-02-18T03:54:54.894Z,102095.77
2018-02-18T03:57:20.841Z,102099.59
2018-02-18T03:59:46.783Z,102095.08
2018-02-18T04:02:12.722Z,102096.33
2018-02-18T04:04:38.679Z,102089.33
2018-02-18T04:07:04.616Z,102093.22
2018-02-18T04:09:30.578Z,102089.16
2018-02-18T04:11:56.529Z,102089.84
2018-02-18T04:14:22.554Z,102095.23
2018-02-18T04:16:48.521Z,102095.59
2018-02-18T04:19:14.480Z,102093.22
2018-02-18T04:21:40.414Z,102095.86
2018-02-18T04:24:06.366Z,102103.45
2018-02-18T04:26:32.333Z,102105.98
2018-02-18T04:28:58.281Z,102110.48
2018-02-18T04:31:24.249Z,102108.63
2018-02-18T04:33:50.192Z,102105.97
2018-02-18T04:36:16.150Z,102112.19
2018-02-18T04:38:42.094Z,102116.70
2018-02-18T04:41:08.029Z,102109.97
2018-02-18T04:43:33.985Z,102115.74
2018-02-18T04:45:59.954Z,102118.78
2018-02-18T04:48:25.906Z,102121.27
2018-02-18T04:50:51.845Z,102112.63
2018-02-18T04:53:17.803Z,102117.41
2018-02-18T04:55:43.743Z,102115.03
2018-02-18T04:58:09.706Z,102118.08
2018-02-18T05:00:35.642Z,102120.05
2018-02-18T05:03:01.603Z,102123.97
2018-02-18T05:05:27.614Z,102122.32
2018-02-18T05:07:53.547Z,102127.80
2018-02-18T05:10:19.487Z,102128.09
2018-02-18T05:12:45.486Z,102132.16
2018-02-18T05:15:11.437Z,102137.00
2018-02-18T05:17:37.380Z,102130.72
2018-02-18T05:20:03.321Z,102130.45
2018-02-18T05:22:29.270Z,102126.56
2018-02-18T05:24:55.221Z,102133.73
2018-02-18T05:27:21.162Z,102135.63
2018-02-18T05:29:47.128Z,102130.55
2018-02-18T05:32:13.079Z,102130.98
2018-02-18T05:34:39.038Z,102124.11
2018-02-18T05:37:04.990Z,102119.64
2018-02-18T05:39:31.006Z,102126.43
2018-02-18T05:41:57.001Z,102125.48
2018-02-18T05:44:23.058Z,102132.45
2018-02-18T05:46:48.996Z,102135.98
2018-02-18T05:49:14.939Z,102139.77
2018-02-18T05:51:40.873Z,102136.89
2018-02-18T05:54:06.818Z,102136.06
2018-02-18T05:56:32.817Z,102138.75
2018-02-18T05:58:58.762Z,102135.22
2018-02-18T06:01:24.706Z,102134.33
2018-02-18T06:03:50.705Z,102138.50
2018-02-18T06:06:16.650Z,102130.98
2018-02-18T06:08:42.640Z,102130.02
2018-02-18T06:11:08.574Z,102126.77
2018-02-18T06:13:34.517Z,102133.33
2018-02-18T06:16:01.300Z,102125.17
2018-02-18T06:18:27.246Z,102129.42
2018-02-18T06:20:53.202Z,102128.79
2018-02-18T06:23:19.185Z,102133.55
2018-02-18T06:25:45.129Z,102133.48
2018-02-18T06:28:11.095Z,102130.50
2018-02-18T06:30:37.173Z,102131.45
2018-02-18T06:33:03.122Z,102132.07
2018-02-18T06:35:29.171Z,102138.35
2018-02-18T06:37:55.683Z,102140.09
2018-02-18T06:40:21.617Z,102147.64
2018-02-18T06:42:47.705Z,102138.62
2018-02-18T06:45:13.678Z,102138.20
2018-02-18T06:47:39.642Z,102135.71
2018-02-18T06:50:05.582Z,102142.44
2018-02-18T06:52:31.518Z,102144.78
2018-02-18T06:54:58.135Z,102143.54
2018-02-18T06:57:24.671Z,102142.39
2018-02-18T06:59:51.690Z,102142.55
2018-02-18T07:02:17.646Z,102151.68
2018-02-18T07:04:43.610Z,102160.16
2018-02-18T07:07:09.575Z,102163.84
2018-02-18T07:09:35.505Z,102165.58
2018-02-18T07:12:01.452Z,102159.11
2018-02-18T07:14:27.421Z,102156.52
2018-02-18T07:16:53.381Z,102157.90
2018-02-18T07:19:19.345Z,102160.95
2018-02-18T07:21:45.298Z,102159.30
2018-02-18T07:24:11.250Z,102151.53
2018-02-18T07:26:37.233Z,102154.95
2018-02-18T07:29:03.226Z,102155.39
2018-02-18T07:31:29.187Z,102157.75
2018-02-18T07:33:55.146Z,102157.84
2018-02-18T07:36:21.169Z,102161.44
2018-02-18T07:38:47.117Z,102154.59
2018-02-18T07:41:13.176Z,102143.31
2018-02-18T07:43:39.203Z,102145.86
2018-02-18T07:46:05.152Z,102143.90
2018-02-18T07:48:31.162Z,102146.20
2018-02-18T07:50:57.177Z,102145.09
2018-02-18T07:53:23.164Z,102143.88
2018-02-18T07:55:49.154Z,102142.20
2018-02-18T07:58:15.098Z,102148.89
2018-02-18T08:00:41.077Z,102150.45
2018-02-18T08:03:07.035Z,102139.24
2018-02-18T08:05:33.017Z,102145.52
2018-02-18T08:07:58.973Z,102137.59
2018-02-18T08:10:24.918Z,102138.55
2018-02-18T08:12:50.880Z,102135.23
2018-02-18T08:15:16.838Z,102128.23
2018-02-18T08:17:42.798Z,102131.87
2018-02-18T08:20:08.771Z,102125.11
2018-02-18T08:22:34.755Z,102137.89
2018-02-18T08:25:00.709Z,102144.09
2018-02-18T08:27:26.661Z,102139.67
2018-02-18T08:29:52.598Z,102135.81
2018-02-18T08:32:18.553Z,102131.80
2018-02-18T08:34:44.577Z,102137.44
2018-02-18T08:37:10.605Z,102137.91
2018-02-18T08:39:36.565Z,102136.97
2018-02-18T08:42:02.516Z,102147.48
2018-02-18T08:44:28.602Z,102139.97
2018-02-18T08:46:54.543Z,102135.30
2018-02-18T08:49:20.505Z,102138.45
2018-02-18T08:51:46.462Z,102133.97
2018-02-18T08:54:12.427Z,102140.34
2018-02-18T08:56:38.386Z,102134.36
2018-02-18T08:59:04.402Z,102138.72
2018-02-18T09:01:30.365Z,102143.36
2018-02-18T09:03:56.322Z,102146.31
2018-02-18T09:06:22.372Z,102143.00
2018-02-18T09:08:48.316Z,102153.33
2018-02-18T09:11:14.294Z,102154.15
2018-02-18T09:13:40.241Z,102154.86
2018-02-18T09:16:06.178Z,102160.93
2018-02-18T09:18:32.122Z,102169.95
2018-02-18T09:20:58.082Z,102159.13
2018-02-18T09:23:24.042Z,102158.38
2018-02-18T09:25:49.988Z,102162.23
2018-02-18T09:28:15.946Z,102156.70
2018-02-18T09:30:41.898Z,102154.73
2018-02-18T09:33:07.861Z,102149.94
2018-02-18T09:35:33.810Z,102154.75
2018-02-18T09:37:59.755Z,102156.39
2018-02-18T09:40:25.704Z,102158.75
2018-02-18T09:42:51.641Z,102162.07
2018-02-18T09:45:17.606Z,102167.41
2018-02-18T09:47:43.576Z,102161.34
2018-02-18T09:50:09.545Z,102163.34
2018-02-18T09:52:35.501Z,102156.01
2018-02-18T09:55:01.498Z,102159.53
2018-02-18T09:57:27.501Z,102157.22
2018-02-18T09:59:53.434Z,102158.45
2018-02-18T10:02:19.410Z,102156.06
2018-02-18T10:04:45.350Z,102159.00
2018-02-18T10:07:11.295Z,102156.89
2018-02-18T10:09:37.238Z,102154.48
2018-02-18T10:12:03.177Z,102158.75
2018-02-18T10:14:30.114Z,102163.90
2018-02-18T10:16:56.153Z,102159.88
2018-02-18T10:19:22.112Z,102158.80
2018-02-18T10:21:48.069Z,102161.34
2018-02-18T10:24:14.019Z,102168.40
2018-02-18T10:26:39.972Z,102169.02
2018-02-18T10:29:05.932Z,102170.09
2018-02-18T10:31:31.882Z,102171.08
2018-02-18T10:33:57.865Z,102168.97
2018-02-18T10:36:23.813Z,102166.83
2018-02-18T10:38:49.765Z,102170.66
2018-02-18T10:41:15.754Z,102170.88
2018-02-18T10:43:41.699Z,102166.51
2018-02-18T10:46:07.651Z,102162.91
2018-02-18T10:48:33.597Z,102162.53
2018-02-18T10:50:59.534Z,102160.66
2018-02-18T10:53:25.489Z,102162.37
2018-02-18T10:55:51.462Z,102161.72
2018-02-18T10:58:17.438Z,102153.92
2018-02-18T11:00:43.410Z,102159.88
2018-02-18T11:03:09.496Z,102148.31
2018-02-18T11:05:35.434Z,102152.37
2018-02-18T11:08:01.432Z,102148.36
2018-02-18T11:10:27.382Z,102148.20
2018-02-18T11:12:53.358Z,102144.63
2018-02-18T11:15:19.306Z,102143.72
2018-02-18T11:17:45.269Z,102141.50
2018-02-18T11:20:11.233Z,102144.05
2018-02-18T11:22:37.177Z,102148.64
2018-02-18T11:25:03.139Z,102142.69
2018-02-18T11:27:29.103Z,102143.73
2018-02-18T11:29:55.072Z,102144.27
2018-02-18T11:32:21.002Z,102141.61
2018-02-18T11:34:46.971Z,102140.05
2018-02-18T11:37:12.924Z,102139.19
2018-02-18T11:39:38.887Z,102138.28
2018-02-18T11:42:04.867Z,102140.13
2018-02-18T11:44:30.830Z,102133.05
2018-02-18T11:46:56.875Z,102125.44
2018-02-18T11:49:22.837Z,102127.42
2018-02-18T11:51:48.833Z,102126.08
2018-02-18T11:54:14.740Z,102121.39
2018-02-18T11:56:40.726Z,102120.55
2018-02-18T11:59:06.674Z,102122.26
2018-02-18T12:01:32.627Z,102122.83
2018-02-18T12:03:58.662Z,102116.23
2018-02-18T12:06:24.631Z,102118.36
2018-02-18T12:08:50.583Z,102106.27
2018-02-18T12:11:16.587Z,102106.05
2018-02-18T12:13:42.531Z,102100.42
2018-02-18T12:16:08.486Z,102096.72
2018-02-18T12:18:34.438Z,102086.27
2018-02-18T12:21:00.390Z,102087.11
2018-02-18T12:23:26.374Z,102085.11
2018-02-18T12:25:52.357Z,102086.36
2018-02-18T12:28:18.308Z,102084.37
2018-02-18T12:30:44.254Z,102084.53
2018-02-18T12:33:10.198Z,102087.27
2018-02-18T12:35:36.172Z,102081.57
2018-02-18T12:38:02.118Z,102083.34
2018-02-18T12:40:28.124Z,102077.01
2018-02-18T12:42:54.070Z,102079.58
2018-02-18T12:45:20.025Z,102075.98
2018-02-18T12:47:46.004Z,102066.91
2018-02-18T12:50:12.003Z,102062.92
2018-02-18T12:52:38.000Z,102063.63
2018-02-18T12:55:03.965Z,102059.48
2018-02-18T12:57:29.963Z,102061.60
2018-02-18T12:59:55.910Z,102061.19
2018-02-18T13:02:22.147Z,102054.11
2018-02-18T13:04:48.090Z,102045.88
2018-02-18T13:07:14.040Z,102042.11
2018-02-18T13:09:40.028Z,102038.22
2018-02-18T13:12:05.978Z,102038.95
2018-02-18T13:14:31.955Z,102029.44
2018-02-18T13:16:57.924Z,102034.67
2018-02-18T13:19:23.870Z,102030.21
2018-02-18T13:21:49.833Z,102029.11
2018-02-18T13:24:15.787Z,102028.31
2018-02-18T13:26:41.754Z,102027.69
2018-02-18T13:29:07.708Z,102034.26
2018-02-18T13:31:33.658Z,102026.34
2018-02-18T13:33:59.610Z,102027.93
2018-02-18T13:36:25.562Z,102026.70
2018-02-18T13:38:51.522Z,102028.04
2018-02-18T13:41:17.482Z,102022.48
2018-02-18T13:43:43.439Z,102020.04
2018-02-18T13:46:09.398Z,102010.37
2018-02-18T13:48:35.357Z,102012.52
2018-02-18T13:51:01.298Z,102008.78
2018-02-18T13:53:27.326Z,102011.03
2018-02-18T13:55:53.280Z,102008.14
2018-02-18T13:58:19.227Z,102009.86
2018-02-18T14:00:45.197Z,102008.44
2018-02-18T14:03:11.138Z,102005.97
2018-02-18T14:05:37.121Z,102008.68
2018-02-18T14:08:03.068Z,101996.77
2018-02-18T14:10:29.057Z,101994.14
2018-02-18T14:12:55.046Z,101995.72
2018-02-18T14:15:21.020Z,101999.08
2018-02-18T14:17:46.969Z,101997.70
2018-02-18T14:20:12.910Z,102001.66
2018-02-18T14:22:38.884Z,101989.36
2018-02-18T14:25:04.839Z,101993.80
2018-02-18T14:27:30.789Z,101996.83
2018-02-18T14:29:56.774Z,102002.14
2018-02-18T14:32:22.749Z,101998.06
2018-02-18T14:34:48.714Z,101998.92
2018-02-18T14:37:14.660Z,101997.67
2018-02-18T14:39:40.585Z,101993.21
2018-02-18T14:42:06.530Z,101995.08
2018-02-18T14:44:32.495Z,101988.00
2018-02-18T14:46:58.477Z,101994.34
2018-02-18T14:49:24.433Z,101995.56
2018-02-18T14:51:50.391Z,101985.12
2018-02-18T14:54:16.364Z,101979.50
2018-02-18T14:56:42.311Z,101982.34
2018-02-18T14:59:08.263Z,101979.63
2018-02-18T15:01:34.226Z,101974.94
2018-02-18T15:04:00.178Z,101970.20
2018-02-18T15:06:26.144Z,101973.88
2018-02-18T15:08:52.099Z,101972.04
2018-02-18T15:11:18.074Z,101970.22
2018-02-18T15:13:44.014Z,101972.11
2018-02-18T15:16:10.012Z,101969.13
2018-02-18T15:18:35.989Z,101971.70
2018-02-18T15:21:01.950Z,101965.02
2018-02-18T15:23:27.885Z,101964.60
2018-02-18T15:25:53.834Z,101962.45
2018-02-18T15:28:19.785Z,101957.82
2018-02-18T15:30:45.729Z,101967.82
2018-02-18T15:33:11.707Z,101962.55
2018-02-18T15:35:37.686Z,101961.30
2018-02-18T15:38:03.657Z,101957.77
2018-02-18T15:40:29.606Z,101956.47
2018-02-18T15:42:55.558Z,101957.36
2018-02-18T15:45:21.531Z,101953.89
2018-02-18T15:47:47.486Z,101950.10
2018-02-18T15:50:13.457Z,101958.52
2018-02-18T15:52:39.418Z,101960.08
2018-02-18T15:55:05.403Z,101950.23
2018-02-18T15:57:31.361Z,101955.66
2018-02-18T15:59:57.297Z,101958.27
2018-02-18T16:02:23.270Z,101949.20
2018-02-18T16:04:49.242Z,101945.59
2018-02-18T16:07:15.174Z,101946.33
2018-02-18T16:09:41.205Z,101947.62
2018-02-18T16:12:07.176Z,101940.39
2018-02-18T16:14:33.117Z,101939.39
2018-02-18T16:16:59.141Z,101937.94
2018-02-18T16:19:25.085Z,101938.39
2018-02-18T16:21:51.033Z,101936.62
2018-02-18T16:24:17.019Z,101938.97
2018-02-18T16:26:42.975Z,101939.63
2018-02-18T16:29:08.942Z,101940.64
2018-02-18T16:31:34.891Z,101938.81
2018-02-18T16:34:00.866Z,101939.81
2018-02-18T16:36:26.833Z,101941.95
2018-02-18T16:38:52.784Z,101944.81
2018-02-18T16:41:18.766Z,101943.03
2018-02-18T16:43:44.735Z,101942.62
2018-02-18T16:46:10.664Z,101940.05
2018-02-18T16:48:36.619Z,101944.88
2018-02-18T16:51:02.595Z,101946.84
2018-02-18T16:53:28.534Z,101948.54
2018-02-18T16:55:54.476Z,101950.86
2018-02-18T16:58:20.442Z,101955.79
2018-02-18T17:00:46.386Z,101956.39
2018-02-18T17:03:12.332Z,101956.59
2018-02-18T17:05:38.290Z,101956.53
2018-02-18T17:08:04.258Z,101955.87
2018-02-18T17:10:30.215Z,101955.05
2018-02-18T17:12:56.249Z,101950.67
2018-02-18T17:15:22.213Z,101945.50
2018-02-18T17:17:48.180Z,101949.77
2018-02-18T17:20:14.127Z,101941.48
2018-02-18T17:22:40.090Z,101943.86
2018-02-18T17:25:06.273Z,101948.84
2018-02-18T17:27:32.230Z,101938.92
2018-02-18T17:29:58.246Z,101942.12
2018-02-18T17:32:24.231Z,101932.65
2018-02-18T17:34:50.202Z,101936.09
2018-02-18T17:37:16.210Z,101935.20
2018-02-18T17:39:42.181Z,101935.22
2018-02-18T17:42:08.139Z,101934.07
2018-02-18T17:44:34.104Z,101933.28
2018-02-18T17:47:00.069Z,101935.78
2018-02-18T17:49:26.047Z,101927.59
2018-02-18T17:51:52.214Z,101928.20
2018-02-18T17:54:18.172Z,101928.46
2018-02-18T17:56:44.140Z,101928.18
2018-02-18T17:59:10.175Z,101926.61
2018-02-18T18:01:36.110Z,101930.02
2018-02-18T18:04:02.055Z,101931.15
2018-02-18T18:06:28.054Z,101933.47
2018-02-18T18:08:53.999Z,101933.70
2018-02-18T18:11:19.956Z,101932.80
2018-02-18T18:13:45.906Z,101928.70
2018-02-18T18:16:11.849Z,101934.41
2018-02-18T18:18:37.809Z,101930.19
2018-02-18T18:21:03.746Z,101922.70
2018-02-18T18:23:29.738Z,101921.22
2018-02-18T18:25:55.690Z,101926.88
2018-02-18T18:28:21.679Z,101926.41
2018-02-18T18:30:47.664Z,101938.75
2018-02-18T18:33:13.607Z,101929.52
2018-02-18T18:35:39.604Z,101930.33
2018-02-18T18:38:05.553Z,101930.84
2018-02-18T18:40:31.522Z,101925.72
2018-02-18T18:42:57.483Z,101925.49
2018-02-18T18:45:23.434Z,101921.63
2018-02-18T18:47:49.399Z,101927.44
2018-02-18T18:50:15.434Z,101929.41
2018-02-18T18:52:41.427Z,101927.86
2018-02-18T18:55:07.392Z,101927.39
2018-02-18T18:57:33.361Z,101931.00
2018-02-18T18:59:59.345Z,101934.57
2018-02-18T19:02:25.282Z,101936.45
2018-02-18T19:04:51.244Z,101938.41
2018-02-18T19:07:17.209Z,101936.50
2018-02-18T19:09:43.197Z,101938.99
2018-02-18T19:12:09.119Z,101942.36
2018-02-18T19:14:35.058Z,101936.67
2018-02-18T19:17:01.014Z,101936.34
2018-02-18T19:19:26.964Z,101937.44
2018-02-18T19:21:52.929Z,101935.94
2018-02-18T19:24:18.873Z,101929.86
2018-02-18T19:26:44.841Z,101929.11
2018-02-18T19:29:10.911Z,101931.44
2018-02-18T19:31:36.870Z,101929.02
2018-02-18T19:34:02.837Z,101927.23
2018-02-18T19:36:28.785Z,101925.80
2018-02-18T19:38:54.769Z,101921.84
2018-02-18T19:41:20.710Z,101916.31
2018-02-18T19:43:46.677Z,101915.91
2018-02-18T19:46:12.747Z,101920.94
2018-02-18T19:48:38.757Z,101916.56
2018-02-18T19:51:04.736Z,101915.78
2018-02-18T19:53:30.829Z,101925.01
2018-02-18T19:55:56.814Z,101921.52
2018-02-18T19:58:22.777Z,101920.03
2018-02-18T20:00:48.830Z,101924.14
2018-02-18T20:03:14.783Z,101917.08
2018-02-18T20:05:40.836Z,101922.73
2018-02-18T20:08:06.914Z,101928.46
2018-02-18T20:10:32.973Z,101922.34
2018-02-18T20:12:58.954Z,101921.92
2018-02-18T20:15:25.086Z,101925.91
2018-02-18T20:17:51.090Z,101930.08
2018-02-18T20:20:17.161Z,101929.58
2018-02-18T20:22:43.151Z,101930.48
2018-02-18T20:25:09.281Z,101924.72
2018-02-18T20:27:35.249Z,101931.09
2018-02-18T20:30:01.193Z,101918.47
2018-02-18T20:32:27.176Z,101919.03
2018-02-18T20:34:53.251Z,101920.94
2018-02-18T20:37:19.321Z,101918.61
2018-02-18T20:39:45.283Z,101913.86
2018-02-18T20:42:11.262Z,101911.97
2018-02-18T20:44:37.214Z,101910.79
2018-02-18T20:47:03.193Z,101896.55
2018-02-18T20:49:29.175Z,101898.94
2018-02-18T20:51:55.187Z,101901.92
2018-02-18T20:54:21.313Z,101895.30
2018-02-18T20:56:47.281Z,101889.61
2018-02-18T20:59:13.266Z,101883.89
2018-02-18T21:01:39.216Z,101888.06
2018-02-18T21:04:05.170Z,101884.77
2018-02-18T21:06:31.227Z,101884.26
2018-02-18T21:08:57.198Z,101885.73
2018-02-18T21:11:23.135Z,101887.06
2018-02-18T21:13:49.106Z,101892.49
2018-02-18T21:16:15.047Z,101902.14
2018-02-18T21:18:41.019Z,101899.69
2018-02-18T21:21:06.966Z,101899.09
2018-02-18T21:23:32.918Z,101895.17
2018-02-18T21:25:58.910Z,101885.59
2018-02-18T21:28:24.870Z,101887.09
2018-02-18T21:30:50.835Z,101887.58
2018-02-18T21:33:16.886Z,101889.25
2018-02-18T21:35:42.862Z,101884.42
2018-02-18T21:38:08.807Z,101880.13
2018-02-18T21:40:34.797Z,101875.53
2018-02-18T21:43:00.741Z,101877.13
2018-02-18T21:45:26.684Z,101876.95
2018-02-18T21:47:52.642Z,101873.80
2018-02-18T21:50:18.739Z,101869.77
2018-02-18T21:52:44.706Z,101867.63
2018-02-18T21:55:10.646Z,101862.60
2018-02-18T21:57:36.615Z,101862.38
2018-02-18T22:00:02.580Z,101854.67
2018-02-18T22:02:28.551Z,101858.83
2018-02-18T22:04:54.501Z,101857.66
2018-02-18T22:07:20.473Z,101850.41
2018-02-18T22:09:46.427Z,101846.95
2018-02-18T22:12:12.371Z,101845.97
2018-02-18T22:14:38.335Z,101844.59
2018-02-18T22:17:04.291Z,101842.19
2018-02-18T22:19:30.242Z,101841.95
2018-02-18T22:21:56.188Z,101840.86
2018-02-18T22:24:22.170Z,101845.38
2018-02-18T22:26:48.122Z,101846.31
2018-02-18T22:29:14.074Z,101846.12
2018-02-18T22:31:40.059Z,101847.02
2018-02-18T22:34:06.002Z,101848.70
2018-02-18T22:36:31.970Z,101856.26
2018-02-18T22:38:58.006Z,101857.84
2018-02-18T22:41:23.995Z,101856.91
2018-02-18T22:43:49.946Z,101853.95
2018-02-18T22:46:15.925Z,101858.08
2018-02-18T22:48:41.885Z,101857.73
2018-02-18T22:51:07.858Z,101864.60
2018-02-18T22:53:33.893Z,101859.39
2018-02-18T22:55:59.854Z,101863.28
2018-02-18T22:58:25.799Z,101861.78
2018-02-18T23:00:51.749Z,101861.53
2018-02-18T23:03:17.722Z,101861.78
2018-02-18T23:05:43.666Z,101861.05
2018-02-18T23:08:09.634Z,101858.24
2018-02-18T23:10:35.573Z,101857.73
2018-02-18T23:13:01.545Z,101864.25
2018-02-18T23:15:27.495Z,101862.87
2018-02-18T23:17:53.464Z,101860.45
2018-02-18T23:20:19.399Z,101867.23
2018-02-18T23:22:45.337Z,101863.09
2018-02-18T23:25:11.274Z,101856.86
2018-02-18T23:27:37.218Z,101854.30
